sensor_id;sensor_type;location;lat;lon;timestamp;P1;durP1;ratioP1;P2;durP2;ratioP2
26042;SDS011;13818;52.156;5.382;2022-08-14T00:00:42;8.35;;;4.78;;
26042;SDS011;13818;52.156;5.382;2022-08-14T00:03:16;8.63;;;5.00;;
26042;SDS011;13818;52.156;5.382;2022-08-14T00:05:43;9.32;;;4.57;;
26042;SDS011;13818;52.156;5.382;2022-08-14T00:08:10;8.35;;;5.07;;
26042;SDS011;13818;52.156;5.382;2022-08-14T00:10:36;8.85;;;5.10;;
26042;SDS011;13818;52.156;5.382;2022-08-14T00:13:03;7.30;;;5.03;;
26042;SDS011;13818;52.156;5.382;2022-08-14T00:15:32;8.68;;;5.15;;
26042;SDS011;13818;52.156;5.382;2022-08-14T00:18:00;7.55;;;5.38;;
26042;SDS011;13818;52.156;5.382;2022-08-14T00:20:29;8.02;;;5.57;;
26042;SDS011;13818;52.156;5.382;2022-08-14T00:22:57;11.05;;;4.85;;
26042;SDS011;13818;52.156;5.382;2022-08-14T00:25:25;10.63;;;6.10;;
26042;SDS011;13818;52.156;5.382;2022-08-14T00:27:53;9.57;;;5.53;;
26042;SDS011;13818;52.156;5.382;2022-08-14T00:30:20;7.75;;;4.72;;
26042;SDS011;13818;52.156;5.382;2022-08-14T00:32:47;9.98;;;4.93;;
26042;SDS011;13818;52.156;5.382;2022-08-14T00:35:14;9.13;;;4.97;;
26042;SDS011;13818;52.156;5.382;2022-08-14T00:37:43;12.13;;;5.32;;
26042;SDS011;13818;52.156;5.382;2022-08-14T00:40:11;8.45;;;5.25;;
26042;SDS011;13818;52.156;5.382;2022-08-14T00:42:40;8.52;;;5.43;;
26042;SDS011;13818;52.156;5.382;2022-08-14T00:45:08;7.93;;;5.65;;
26042;SDS011;13818;52.156;5.382;2022-08-14T00:47:36;9.68;;;4.95;;
26042;SDS011;13818;52.156;5.382;2022-08-14T00:50:05;9.50;;;5.13;;
26042;SDS011;13818;52.156;5.382;2022-08-14T00:52:33;9.68;;;5.70;;
26042;SDS011;13818;52.156;5.382;2022-08-14T00:55:00;9.85;;;5.03;;
26042;SDS011;13818;52.156;5.382;2022-08-14T00:57:27;11.80;;;5.45;;
26042;SDS011;13818;52.156;5.382;2022-08-14T00:59:55;11.27;;;5.20;;
26042;SDS011;13818;52.156;5.382;2022-08-14T01:02:23;9.18;;;5.28;;
26042;SDS011;13818;52.156;5.382;2022-08-14T01:04:50;9.18;;;5.35;;
26042;SDS011;13818;52.156;5.382;2022-08-14T01:07:20;8.07;;;5.67;;
26042;SDS011;13818;52.156;5.382;2022-08-14T01:09:48;12.32;;;5.70;;
26042;SDS011;13818;52.156;5.382;2022-08-14T01:12:15;7.97;;;5.38;;
26042;SDS011;13818;52.156;5.382;2022-08-14T01:14:42;10.13;;;5.70;;
26042;SDS011;13818;52.156;5.382;2022-08-14T01:17:09;9.82;;;5.68;;
26042;SDS011;13818;52.156;5.382;2022-08-14T01:19:36;12.00;;;6.05;;
26042;SDS011;13818;52.156;5.382;2022-08-14T01:22:22;10.25;;;5.80;;
26042;SDS011;13818;52.156;5.382;2022-08-14T01:24:49;10.32;;;5.88;;
26042;SDS011;13818;52.156;5.382;2022-08-14T01:27:15;10.63;;;5.70;;
26042;SDS011;13818;52.156;5.382;2022-08-14T01:29:43;9.90;;;6.38;;
26042;SDS011;13818;52.156;5.382;2022-08-14T01:32:12;10.73;;;6.05;;
26042;SDS011;13818;52.156;5.382;2022-08-14T01:34:39;10.90;;;6.30;;
26042;SDS011;13818;52.156;5.382;2022-08-14T01:37:06;10.82;;;6.05;;
26042;SDS011;13818;52.156;5.382;2022-08-14T01:39:33;11.18;;;6.15;;
26042;SDS011;13818;52.156;5.382;2022-08-14T01:42:01;8.82;;;5.90;;
26042;SDS011;13818;52.156;5.382;2022-08-14T01:44:29;12.60;;;6.55;;
26042;SDS011;13818;52.156;5.382;2022-08-14T01:46:56;9.20;;;5.97;;
26042;SDS011;13818;52.156;5.382;2022-08-14T01:49:23;10.63;;;6.45;;
26042;SDS011;13818;52.156;5.382;2022-08-14T01:51:50;8.93;;;5.93;;
26042;SDS011;13818;52.156;5.382;2022-08-14T01:54:21;9.50;;;6.13;;
26042;SDS011;13818;52.156;5.382;2022-08-14T01:56:51;9.98;;;5.88;;
26042;SDS011;13818;52.156;5.382;2022-08-14T01:59:21;11.98;;;6.30;;
26042;SDS011;13818;52.156;5.382;2022-08-14T02:01:53;8.82;;;5.68;;
26042;SDS011;13818;52.156;5.382;2022-08-14T02:04:23;10.32;;;5.90;;
26042;SDS011;13818;52.156;5.382;2022-08-14T02:06:51;11.80;;;6.20;;
26042;SDS011;13818;52.156;5.382;2022-08-14T02:09:18;9.10;;;5.70;;
26042;SDS011;13818;52.156;5.382;2022-08-14T02:11:46;9.82;;;6.25;;
26042;SDS011;13818;52.156;5.382;2022-08-14T02:14:15;9.50;;;5.55;;
26042;SDS011;13818;52.156;5.382;2022-08-14T02:16:44;8.98;;;5.65;;
26042;SDS011;13818;52.156;5.382;2022-08-14T02:19:13;8.82;;;5.15;;
26042;SDS011;13818;52.156;5.382;2022-08-14T02:21:41;9.75;;;5.40;;
26042;SDS011;13818;52.156;5.382;2022-08-14T02:24:09;8.38;;;5.85;;
26042;SDS011;13818;52.156;5.382;2022-08-14T02:26:36;10.40;;;6.60;;
26042;SDS011;13818;52.156;5.382;2022-08-14T02:29:11;9.77;;;5.63;;
26042;SDS011;13818;52.156;5.382;2022-08-14T02:31:41;13.10;;;5.95;;
26042;SDS011;13818;52.156;5.382;2022-08-14T02:34:11;9.82;;;5.68;;
26042;SDS011;13818;52.156;5.382;2022-08-14T02:36:39;8.73;;;5.28;;
26042;SDS011;13818;52.156;5.382;2022-08-14T02:39:07;10.05;;;5.72;;
26042;SDS011;13818;52.156;5.382;2022-08-14T02:41:35;9.73;;;5.57;;
26042;SDS011;13818;52.156;5.382;2022-08-14T02:44:03;9.55;;;6.18;;
26042;SDS011;13818;52.156;5.382;2022-08-14T02:46:30;12.10;;;6.30;;
26042;SDS011;13818;52.156;5.382;2022-08-14T02:48:58;11.43;;;5.63;;
26042;SDS011;13818;52.156;5.382;2022-08-14T02:51:25;11.35;;;6.05;;
26042;SDS011;13818;52.156;5.382;2022-08-14T02:56:22;12.30;;;6.25;;
26042;SDS011;13818;52.156;5.382;2022-08-14T02:58:50;10.05;;;6.38;;
26042;SDS011;13818;52.156;5.382;2022-08-14T03:01:18;12.10;;;6.45;;
26042;SDS011;13818;52.156;5.382;2022-08-14T03:03:46;11.45;;;5.93;;
26042;SDS011;13818;52.156;5.382;2022-08-14T03:06:15;11.18;;;6.25;;
26042;SDS011;13818;52.156;5.382;2022-08-14T03:08:44;12.25;;;6.00;;
26042;SDS011;13818;52.156;5.382;2022-08-14T03:11:12;12.05;;;6.57;;
26042;SDS011;13818;52.156;5.382;2022-08-14T03:13:39;10.63;;;6.40;;
26042;SDS011;13818;52.156;5.382;2022-08-14T03:16:08;12.40;;;6.53;;
26042;SDS011;13818;52.156;5.382;2022-08-14T03:18:39;15.30;;;6.93;;
26042;SDS011;13818;52.156;5.382;2022-08-14T03:21:08;9.48;;;6.35;;
26042;SDS011;13818;52.156;5.382;2022-08-14T03:23:42;10.15;;;5.95;;
26042;SDS011;13818;52.156;5.382;2022-08-14T03:26:11;12.35;;;6.22;;
26042;SDS011;13818;52.156;5.382;2022-08-14T03:28:40;11.43;;;6.90;;
26042;SDS011;13818;52.156;5.382;2022-08-14T03:31:07;10.40;;;6.13;;
26042;SDS011;13818;52.156;5.382;2022-08-14T03:33:35;9.73;;;6.10;;
26042;SDS011;13818;52.156;5.382;2022-08-14T03:36:02;10.93;;;6.93;;
26042;SDS011;13818;52.156;5.382;2022-08-14T03:38:32;11.50;;;7.03;;
26042;SDS011;13818;52.156;5.382;2022-08-14T03:41:04;14.63;;;6.90;;
26042;SDS011;13818;52.156;5.382;2022-08-14T03:43:38;10.45;;;6.75;;
26042;SDS011;13818;52.156;5.382;2022-08-14T03:46:05;9.60;;;6.43;;
26042;SDS011;13818;52.156;5.382;2022-08-14T03:48:31;14.90;;;6.82;;
26042;SDS011;13818;52.156;5.382;2022-08-14T03:50:58;12.40;;;6.35;;
26042;SDS011;13818;52.156;5.382;2022-08-14T03:53:24;13.23;;;6.70;;
26042;SDS011;13818;52.156;5.382;2022-08-14T03:55:51;15.27;;;7.10;;
26042;SDS011;13818;52.156;5.382;2022-08-14T03:58:24;11.45;;;6.97;;
26042;SDS011;13818;52.156;5.382;2022-08-14T04:00:50;15.20;;;7.53;;
26042;SDS011;13818;52.156;5.382;2022-08-14T04:03:17;12.57;;;6.70;;
26042;SDS011;13818;52.156;5.382;2022-08-14T04:05:44;12.85;;;7.05;;
26042;SDS011;13818;52.156;5.382;2022-08-14T04:08:10;11.35;;;7.30;;
26042;SDS011;13818;52.156;5.382;2022-08-14T04:10:37;11.10;;;6.85;;
26042;SDS011;13818;52.156;5.382;2022-08-14T04:13:03;12.73;;;7.05;;
26042;SDS011;13818;52.156;5.382;2022-08-14T04:15:32;12.05;;;7.32;;
26042;SDS011;13818;52.156;5.382;2022-08-14T04:18:01;12.82;;;7.53;;
26042;SDS011;13818;52.156;5.382;2022-08-14T04:20:30;12.88;;;7.50;;
26042;SDS011;13818;52.156;5.382;2022-08-14T04:22:57;14.10;;;7.53;;
26042;SDS011;13818;52.156;5.382;2022-08-14T04:25:23;12.40;;;7.55;;
26042;SDS011;13818;52.156;5.382;2022-08-14T04:27:50;13.13;;;7.10;;
26042;SDS011;13818;52.156;5.382;2022-08-14T04:30:16;14.10;;;7.40;;
26042;SDS011;13818;52.156;5.382;2022-08-14T04:32:44;12.73;;;7.85;;
26042;SDS011;13818;52.156;5.382;2022-08-14T04:35:11;12.25;;;7.32;;
26042;SDS011;13818;52.156;5.382;2022-08-14T04:37:37;12.23;;;7.15;;
26042;SDS011;13818;52.156;5.382;2022-08-14T04:40:21;16.75;;;7.60;;
26042;SDS011;13818;52.156;5.382;2022-08-14T04:43:06;12.77;;;6.93;;
26042;SDS011;13818;52.156;5.382;2022-08-14T04:45:50;13.00;;;7.47;;
26042;SDS011;13818;52.156;5.382;2022-08-14T04:48:18;13.50;;;6.95;;
26042;SDS011;13818;52.156;5.382;2022-08-14T04:50:45;15.77;;;7.93;;
26042;SDS011;13818;52.156;5.382;2022-08-14T04:53:14;13.10;;;7.38;;
26042;SDS011;13818;52.156;5.382;2022-08-14T04:55:43;13.07;;;7.30;;
26042;SDS011;13818;52.156;5.382;2022-08-14T04:58:12;15.55;;;7.60;;
26042;SDS011;13818;52.156;5.382;2022-08-14T05:00:39;13.27;;;7.45;;
26042;SDS011;13818;52.156;5.382;2022-08-14T05:03:06;11.73;;;7.82;;
26042;SDS011;13818;52.156;5.382;2022-08-14T05:05:34;12.20;;;7.80;;
26042;SDS011;13818;52.156;5.382;2022-08-14T05:08:06;11.80;;;7.50;;
26042;SDS011;13818;52.156;5.382;2022-08-14T05:10:36;13.40;;;7.35;;
26042;SDS011;13818;52.156;5.382;2022-08-14T05:13:05;12.45;;;7.65;;
26042;SDS011;13818;52.156;5.382;2022-08-14T05:15:32;13.02;;;7.55;;
26042;SDS011;13818;52.156;5.382;2022-08-14T05:18:01;14.63;;;7.22;;
26042;SDS011;13818;52.156;5.382;2022-08-14T05:20:29;12.63;;;7.30;;
26042;SDS011;13818;52.156;5.382;2022-08-14T05:22:58;12.63;;;7.40;;
26042;SDS011;13818;52.156;5.382;2022-08-14T05:25:25;12.05;;;7.45;;
26042;SDS011;13818;52.156;5.382;2022-08-14T05:27:52;14.15;;;7.85;;
26042;SDS011;13818;52.156;5.382;2022-08-14T05:30:21;12.02;;;7.28;;
26042;SDS011;13818;52.156;5.382;2022-08-14T05:32:47;16.13;;;7.97;;
26042;SDS011;13818;52.156;5.382;2022-08-14T05:35:14;13.25;;;7.25;;
26042;SDS011;13818;52.156;5.382;2022-08-14T05:37:40;10.50;;;7.20;;
26042;SDS011;13818;52.156;5.382;2022-08-14T05:40:08;13.88;;;7.30;;
26042;SDS011;13818;52.156;5.382;2022-08-14T05:42:36;9.75;;;6.82;;
26042;SDS011;13818;52.156;5.382;2022-08-14T05:45:03;19.17;;;7.60;;
26042;SDS011;13818;52.156;5.382;2022-08-14T05:47:37;10.75;;;6.82;;
26042;SDS011;13818;52.156;5.382;2022-08-14T05:50:05;12.55;;;7.57;;
26042;SDS011;13818;52.156;5.382;2022-08-14T05:52:33;12.48;;;7.75;;
26042;SDS011;13818;52.156;5.382;2022-08-14T05:54:59;12.07;;;8.07;;
26042;SDS011;13818;52.156;5.382;2022-08-14T05:57:27;12.73;;;8.18;;
26042;SDS011;13818;52.156;5.382;2022-08-14T05:59:53;16.20;;;8.18;;
26042;SDS011;13818;52.156;5.382;2022-08-14T06:02:20;11.73;;;7.45;;
26042;SDS011;13818;52.156;5.382;2022-08-14T06:04:46;10.55;;;7.30;;
26042;SDS011;13818;52.156;5.382;2022-08-14T06:07:13;13.25;;;7.43;;
26042;SDS011;13818;52.156;5.382;2022-08-14T06:09:39;11.43;;;7.50;;
26042;SDS011;13818;52.156;5.382;2022-08-14T06:12:06;11.27;;;6.95;;
26042;SDS011;13818;52.156;5.382;2022-08-14T06:14:34;14.45;;;7.40;;
26042;SDS011;13818;52.156;5.382;2022-08-14T06:17:01;13.82;;;8.20;;
26042;SDS011;13818;52.156;5.382;2022-08-14T06:19:27;14.10;;;8.05;;
26042;SDS011;13818;52.156;5.382;2022-08-14T06:21:54;11.35;;;7.50;;
26042;SDS011;13818;52.156;5.382;2022-08-14T06:24:20;13.43;;;7.95;;
26042;SDS011;13818;52.156;5.382;2022-08-14T06:26:47;13.43;;;7.88;;
26042;SDS011;13818;52.156;5.382;2022-08-14T06:29:13;13.85;;;7.32;;
26042;SDS011;13818;52.156;5.382;2022-08-14T06:31:41;15.00;;;7.95;;
26042;SDS011;13818;52.156;5.382;2022-08-14T06:34:08;12.50;;;7.15;;
26042;SDS011;13818;52.156;5.382;2022-08-14T06:36:34;12.80;;;7.35;;
26042;SDS011;13818;52.156;5.382;2022-08-14T06:39:01;15.20;;;7.30;;
26042;SDS011;13818;52.156;5.382;2022-08-14T06:41:28;10.73;;;7.40;;
26042;SDS011;13818;52.156;5.382;2022-08-14T06:43:55;10.30;;;6.95;;
26042;SDS011;13818;52.156;5.382;2022-08-14T06:46:21;11.30;;;7.28;;
26042;SDS011;13818;52.156;5.382;2022-08-14T06:48:49;11.45;;;6.85;;
26042;SDS011;13818;52.156;5.382;2022-08-14T06:51:15;9.15;;;6.32;;
26042;SDS011;13818;52.156;5.382;2022-08-14T06:53:42;8.50;;;6.93;;
26042;SDS011;13818;52.156;5.382;2022-08-14T06:56:08;10.25;;;7.30;;
26042;SDS011;13818;52.156;5.382;2022-08-14T06:58:35;11.55;;;7.65;;
26042;SDS011;13818;52.156;5.382;2022-08-14T07:01:02;11.95;;;6.65;;
26042;SDS011;13818;52.156;5.382;2022-08-14T07:03:46;13.10;;;7.30;;
26042;SDS011;13818;52.156;5.382;2022-08-14T07:06:31;10.50;;;6.18;;
26042;SDS011;13818;52.156;5.382;2022-08-14T07:08:58;12.07;;;6.85;;
26042;SDS011;13818;52.156;5.382;2022-08-14T07:11:24;13.45;;;7.03;;
26042;SDS011;13818;52.156;5.382;2022-08-14T07:13:51;8.68;;;6.55;;
26042;SDS011;13818;52.156;5.382;2022-08-14T07:16:18;11.63;;;6.38;;
26042;SDS011;13818;52.156;5.382;2022-08-14T07:18:44;13.73;;;6.97;;
26042;SDS011;13818;52.156;5.382;2022-08-14T07:21:11;14.38;;;6.88;;
26042;SDS011;13818;52.156;5.382;2022-08-14T07:23:38;8.68;;;5.97;;
26042;SDS011;13818;52.156;5.382;2022-08-14T07:26:05;9.98;;;6.40;;
26042;SDS011;13818;52.156;5.382;2022-08-14T07:28:33;11.30;;;6.07;;
26042;SDS011;13818;52.156;5.382;2022-08-14T07:31:01;9.88;;;6.28;;
26042;SDS011;13818;52.156;5.382;2022-08-14T07:35:58;8.98;;;6.07;;
26042;SDS011;13818;52.156;5.382;2022-08-14T07:38:28;8.65;;;6.45;;
26042;SDS011;13818;52.156;5.382;2022-08-14T07:43:23;9.68;;;6.78;;
26042;SDS011;13818;52.156;5.382;2022-08-14T07:45:50;12.25;;;7.60;;
26042;SDS011;13818;52.156;5.382;2022-08-14T07:48:17;8.60;;;6.05;;
26042;SDS011;13818;52.156;5.382;2022-08-14T07:50:44;8.50;;;5.95;;
26042;SDS011;13818;52.156;5.382;2022-08-14T07:53:11;12.85;;;5.50;;
26042;SDS011;13818;52.156;5.382;2022-08-14T07:55:38;9.65;;;5.80;;
26042;SDS011;13818;52.156;5.382;2022-08-14T07:58:09;11.52;;;5.80;;
26042;SDS011;13818;52.156;5.382;2022-08-14T08:00:35;9.50;;;6.00;;
26042;SDS011;13818;52.156;5.382;2022-08-14T08:03:02;7.70;;;5.43;;
26042;SDS011;13818;52.156;5.382;2022-08-14T08:05:34;9.07;;;6.68;;
26042;SDS011;13818;52.156;5.382;2022-08-14T08:08:02;9.27;;;6.30;;
26042;SDS011;13818;52.156;5.382;2022-08-14T08:10:30;10.13;;;5.63;;
26042;SDS011;13818;52.156;5.382;2022-08-14T08:12:58;13.30;;;6.03;;
26042;SDS011;13818;52.156;5.382;2022-08-14T08:15:27;8.35;;;5.40;;
26042;SDS011;13818;52.156;5.382;2022-08-14T08:17:57;8.48;;;5.45;;
26042;SDS011;13818;52.156;5.382;2022-08-14T08:20:24;8.68;;;6.07;;
26042;SDS011;13818;52.156;5.382;2022-08-14T08:22:52;8.48;;;5.82;;
26042;SDS011;13818;52.156;5.382;2022-08-14T08:25:20;7.65;;;5.07;;
26042;SDS011;13818;52.156;5.382;2022-08-14T08:27:54;12.00;;;6.40;;
26042;SDS011;13818;52.156;5.382;2022-08-14T08:30:27;10.88;;;6.25;;
26042;SDS011;13818;52.156;5.382;2022-08-14T08:32:56;12.75;;;5.97;;
26042;SDS011;13818;52.156;5.382;2022-08-14T08:35:26;7.93;;;5.68;;
26042;SDS011;13818;52.156;5.382;2022-08-14T08:37:59;11.15;;;5.75;;
26042;SDS011;13818;52.156;5.382;2022-08-14T08:40:27;9.52;;;5.88;;
26042;SDS011;13818;52.156;5.382;2022-08-14T08:42:59;15.63;;;5.43;;
26042;SDS011;13818;52.156;5.382;2022-08-14T08:45:27;7.65;;;5.60;;
26042;SDS011;13818;52.156;5.382;2022-08-14T08:47:54;8.40;;;5.17;;
26042;SDS011;13818;52.156;5.382;2022-08-14T08:50:21;10.88;;;5.50;;
26042;SDS011;13818;52.156;5.382;2022-08-14T08:52:52;9.15;;;5.93;;
26042;SDS011;13818;52.156;5.382;2022-08-14T08:55:23;10.77;;;5.85;;
26042;SDS011;13818;52.156;5.382;2022-08-14T08:57:54;10.38;;;5.53;;
26042;SDS011;13818;52.156;5.382;2022-08-14T09:00:22;6.97;;;5.03;;
26042;SDS011;13818;52.156;5.382;2022-08-14T09:02:54;8.00;;;5.90;;
26042;SDS011;13818;52.156;5.382;2022-08-14T09:05:23;13.13;;;5.28;;
26042;SDS011;13818;52.156;5.382;2022-08-14T09:07:51;8.75;;;5.15;;
26042;SDS011;13818;52.156;5.382;2022-08-14T09:10:17;7.63;;;5.38;;
26042;SDS011;13818;52.156;5.382;2022-08-14T09:12:45;9.13;;;5.35;;
26042;SDS011;13818;52.156;5.382;2022-08-14T09:15:12;6.35;;;5.15;;
26042;SDS011;13818;52.156;5.382;2022-08-14T09:17:40;7.93;;;5.00;;
26042;SDS011;13818;52.156;5.382;2022-08-14T09:20:09;10.83;;;5.70;;
26042;SDS011;13818;52.156;5.382;2022-08-14T09:22:38;8.10;;;5.50;;
26042;SDS011;13818;52.156;5.382;2022-08-14T09:25:06;7.05;;;4.88;;
26042;SDS011;13818;52.156;5.382;2022-08-14T09:27:33;8.77;;;5.35;;
26042;SDS011;13818;52.156;5.382;2022-08-14T09:30:03;6.80;;;4.45;;
26042;SDS011;13818;52.156;5.382;2022-08-14T09:32:50;7.80;;;4.78;;
26042;SDS011;13818;52.156;5.382;2022-08-14T09:35:46;5.72;;;4.53;;
26042;SDS011;13818;52.156;5.382;2022-08-14T09:38:36;9.25;;;5.05;;
26042;SDS011;13818;52.156;5.382;2022-08-14T09:41:12;9.35;;;4.70;;
26042;SDS011;13818;52.156;5.382;2022-08-14T09:43:53;7.75;;;5.05;;
26042;SDS011;13818;52.156;5.382;2022-08-14T09:46:25;6.85;;;4.63;;
26042;SDS011;13818;52.156;5.382;2022-08-14T09:49:00;9.27;;;4.95;;
26042;SDS011;13818;52.156;5.382;2022-08-14T09:51:31;8.38;;;4.50;;
26042;SDS011;13818;52.156;5.382;2022-08-14T09:54:07;9.55;;;6.45;;
26042;SDS011;13818;52.156;5.382;2022-08-14T09:56:42;9.13;;;5.03;;
26042;SDS011;13818;52.156;5.382;2022-08-14T09:59:13;6.60;;;5.15;;
26042;SDS011;13818;52.156;5.382;2022-08-14T10:01:46;6.70;;;4.85;;
26042;SDS011;13818;52.156;5.382;2022-08-14T10:04:17;9.13;;;5.15;;
26042;SDS011;13818;52.156;5.382;2022-08-14T10:06:46;6.40;;;4.93;;
26042;SDS011;13818;52.156;5.382;2022-08-14T10:09:15;10.20;;;4.55;;
26042;SDS011;13818;52.156;5.382;2022-08-14T10:11:52;9.13;;;4.72;;
26042;SDS011;13818;52.156;5.382;2022-08-14T10:14:21;6.35;;;4.90;;
26042;SDS011;13818;52.156;5.382;2022-08-14T10:19:19;6.28;;;4.75;;
26042;SDS011;13818;52.156;5.382;2022-08-14T10:24:25;7.63;;;4.30;;
26042;SDS011;13818;52.156;5.382;2022-08-14T10:26:58;8.75;;;4.40;;
26042;SDS011;13818;52.156;5.382;2022-08-14T10:29:31;6.68;;;4.53;;
26042;SDS011;13818;52.156;5.382;2022-08-14T10:31:59;8.25;;;4.97;;
26042;SDS011;13818;52.156;5.382;2022-08-14T10:34:30;9.20;;;4.93;;
26042;SDS011;13818;52.156;5.382;2022-08-14T10:37:03;7.22;;;4.60;;
26042;SDS011;13818;52.156;5.382;2022-08-14T10:39:33;11.70;;;4.47;;
26042;SDS011;13818;52.156;5.382;2022-08-14T10:42:02;9.48;;;5.15;;
26042;SDS011;13818;52.156;5.382;2022-08-14T10:46:59;6.78;;;3.88;;
26042;SDS011;13818;52.156;5.382;2022-08-14T10:49:31;11.68;;;4.57;;
26042;SDS011;13818;52.156;5.382;2022-08-14T10:52:00;7.82;;;4.75;;
26042;SDS011;13818;52.156;5.382;2022-08-14T10:54:38;7.30;;;4.50;;
26042;SDS011;13818;52.156;5.382;2022-08-14T10:57:12;8.52;;;5.10;;
26042;SDS011;13818;52.156;5.382;2022-08-14T10:59:42;8.00;;;4.78;;
26042;SDS011;13818;52.156;5.382;2022-08-14T11:02:17;4.75;;;3.65;;
26042;SDS011;13818;52.156;5.382;2022-08-14T11:04:55;6.65;;;4.00;;
26042;SDS011;13818;52.156;5.382;2022-08-14T11:07:22;8.20;;;4.32;;
26042;SDS011;13818;52.156;5.382;2022-08-14T11:09:54;5.95;;;4.50;;
26042;SDS011;13818;52.156;5.382;2022-08-14T11:12:21;9.68;;;4.43;;
26042;SDS011;13818;52.156;5.382;2022-08-14T11:14:51;6.78;;;4.40;;
26042;SDS011;13818;52.156;5.382;2022-08-14T11:17:20;6.43;;;3.60;;
26042;SDS011;13818;52.156;5.382;2022-08-14T11:19:49;5.28;;;3.33;;
26042;SDS011;13818;52.156;5.382;2022-08-14T11:22:20;4.57;;;3.35;;
26042;SDS011;13818;52.156;5.382;2022-08-14T11:24:47;8.98;;;3.47;;
26042;SDS011;13818;52.156;5.382;2022-08-14T11:27:17;8.07;;;3.77;;
26042;SDS011;13818;52.156;5.382;2022-08-14T11:29:45;5.28;;;3.90;;
26042;SDS011;13818;52.156;5.382;2022-08-14T11:34:40;8.32;;;3.22;;
26042;SDS011;13818;52.156;5.382;2022-08-14T11:37:08;6.57;;;3.33;;
26042;SDS011;13818;52.156;5.382;2022-08-14T11:39:35;7.43;;;3.60;;
26042;SDS011;13818;52.156;5.382;2022-08-14T11:42:01;6.25;;;3.40;;
26042;SDS011;13818;52.156;5.382;2022-08-14T11:44:29;6.57;;;3.40;;
26042;SDS011;13818;52.156;5.382;2022-08-14T11:46:56;5.47;;;3.10;;
26042;SDS011;13818;52.156;5.382;2022-08-14T11:49:24;5.78;;;3.05;;
26042;SDS011;13818;52.156;5.382;2022-08-14T11:51:52;6.55;;;3.53;;
26042;SDS011;13818;52.156;5.382;2022-08-14T11:54:19;4.10;;;3.38;;
26042;SDS011;13818;52.156;5.382;2022-08-14T11:56:46;4.70;;;3.22;;
26042;SDS011;13818;52.156;5.382;2022-08-14T11:59:16;7.15;;;3.55;;
26042;SDS011;13818;52.156;5.382;2022-08-14T12:01:45;4.80;;;3.17;;
26042;SDS011;13818;52.156;5.382;2022-08-14T12:04:12;6.83;;;3.63;;
26042;SDS011;13818;52.156;5.382;2022-08-14T12:06:45;8.15;;;3.70;;
26042;SDS011;13818;52.156;5.382;2022-08-14T12:09:14;6.03;;;3.38;;
26042;SDS011;13818;52.156;5.382;2022-08-14T12:11:52;4.43;;;3.60;;
26042;SDS011;13818;52.156;5.382;2022-08-14T12:14:20;7.20;;;4.32;;
26042;SDS011;13818;52.156;5.382;2022-08-14T12:16:57;4.82;;;3.47;;
26042;SDS011;13818;52.156;5.382;2022-08-14T12:19:25;6.13;;;3.60;;
26042;SDS011;13818;52.156;5.382;2022-08-14T12:21:52;5.65;;;3.25;;
26042;SDS011;13818;52.156;5.382;2022-08-14T12:24:18;4.57;;;3.65;;
26042;SDS011;13818;52.156;5.382;2022-08-14T12:26:53;4.70;;;3.33;;
26042;SDS011;13818;52.156;5.382;2022-08-14T12:29:20;7.03;;;3.65;;
26042;SDS011;13818;52.156;5.382;2022-08-14T12:31:55;4.53;;;3.65;;
26042;SDS011;13818;52.156;5.382;2022-08-14T12:34:31;5.03;;;3.70;;
26042;SDS011;13818;52.156;5.382;2022-08-14T12:37:02;5.88;;;3.50;;
26042;SDS011;13818;52.156;5.382;2022-08-14T12:39:30;4.40;;;3.15;;
26042;SDS011;13818;52.156;5.382;2022-08-14T12:41:56;8.73;;;3.58;;
26042;SDS011;13818;52.156;5.382;2022-08-14T12:44:29;7.10;;;3.63;;
26042;SDS011;13818;52.156;5.382;2022-08-14T12:47:07;5.43;;;3.83;;
26042;SDS011;13818;52.156;5.382;2022-08-14T12:49:36;5.90;;;3.50;;
26042;SDS011;13818;52.156;5.382;2022-08-14T12:52:04;6.25;;;3.90;;
26042;SDS011;13818;52.156;5.382;2022-08-14T12:54:32;4.97;;;3.13;;
26042;SDS011;13818;52.156;5.382;2022-08-14T12:57:02;6.93;;;3.50;;
26042;SDS011;13818;52.156;5.382;2022-08-14T12:59:30;6.30;;;3.90;;
26042;SDS011;13818;52.156;5.382;2022-08-14T13:01:58;4.97;;;3.45;;
26042;SDS011;13818;52.156;5.382;2022-08-14T13:04:27;6.55;;;3.60;;
26042;SDS011;13818;52.156;5.382;2022-08-14T13:06:58;4.97;;;3.50;;
26042;SDS011;13818;52.156;5.382;2022-08-14T13:09:32;4.70;;;3.47;;
26042;SDS011;13818;52.156;5.382;2022-08-14T13:12:00;7.88;;;3.80;;
26042;SDS011;13818;52.156;5.382;2022-08-14T13:14:28;4.85;;;3.85;;
26042;SDS011;13818;52.156;5.382;2022-08-14T13:16:58;5.22;;;3.33;;
26042;SDS011;13818;52.156;5.382;2022-08-14T13:19:26;4.90;;;3.50;;
26042;SDS011;13818;52.156;5.382;2022-08-14T13:21:55;6.38;;;4.25;;
26042;SDS011;13818;52.156;5.382;2022-08-14T13:24:22;6.40;;;4.03;;
26042;SDS011;13818;52.156;5.382;2022-08-14T13:26:50;5.35;;;3.92;;
26042;SDS011;13818;52.156;5.382;2022-08-14T13:29:20;5.75;;;3.80;;
26042;SDS011;13818;52.156;5.382;2022-08-14T13:31:49;5.97;;;4.07;;
26042;SDS011;13818;52.156;5.382;2022-08-14T13:36:46;6.28;;;3.85;;
26042;SDS011;13818;52.156;5.382;2022-08-14T13:41:41;5.93;;;3.83;;
26042;SDS011;13818;52.156;5.382;2022-08-14T13:44:08;5.95;;;4.10;;
26042;SDS011;13818;52.156;5.382;2022-08-14T13:46:35;5.75;;;3.83;;
26042;SDS011;13818;52.156;5.382;2022-08-14T13:49:02;5.95;;;4.07;;
26042;SDS011;13818;52.156;5.382;2022-08-14T13:51:37;4.63;;;3.53;;
26042;SDS011;13818;52.156;5.382;2022-08-14T13:54:07;6.82;;;3.38;;
26042;SDS011;13818;52.156;5.382;2022-08-14T13:56:35;7.60;;;3.92;;
26042;SDS011;13818;52.156;5.382;2022-08-14T13:59:03;4.55;;;3.78;;
26042;SDS011;13818;52.156;5.382;2022-08-14T14:01:30;7.63;;;3.95;;
26042;SDS011;13818;52.156;5.382;2022-08-14T14:03:59;5.05;;;3.72;;
26042;SDS011;13818;52.156;5.382;2022-08-14T14:06:27;7.47;;;3.60;;
26042;SDS011;13818;52.156;5.382;2022-08-14T14:08:56;6.40;;;3.78;;
26042;SDS011;13818;52.156;5.382;2022-08-14T14:11:24;5.10;;;3.63;;
26042;SDS011;13818;52.156;5.382;2022-08-14T14:13:51;7.25;;;3.80;;
26042;SDS011;13818;52.156;5.382;2022-08-14T14:16:19;5.03;;;4.18;;
26042;SDS011;13818;52.156;5.382;2022-08-14T14:18:47;5.80;;;4.13;;
26042;SDS011;13818;52.156;5.382;2022-08-14T14:21:16;5.45;;;3.88;;
26042;SDS011;13818;52.156;5.382;2022-08-14T14:23:43;6.40;;;3.50;;
26042;SDS011;13818;52.156;5.382;2022-08-14T14:26:11;8.23;;;4.20;;
26042;SDS011;13818;52.156;5.382;2022-08-14T14:28:40;4.78;;;3.85;;
26042;SDS011;13818;52.156;5.382;2022-08-14T14:33:39;6.03;;;4.07;;
26042;SDS011;13818;52.156;5.382;2022-08-14T14:36:10;6.15;;;3.70;;
26042;SDS011;13818;52.156;5.382;2022-08-14T14:38:38;6.03;;;4.10;;
26042;SDS011;13818;52.156;5.382;2022-08-14T14:41:08;6.00;;;3.72;;
26042;SDS011;13818;52.156;5.382;2022-08-14T14:43:38;6.63;;;3.83;;
26042;SDS011;13818;52.156;5.382;2022-08-14T14:46:09;5.78;;;4.00;;
26042;SDS011;13818;52.156;5.382;2022-08-14T14:48:39;6.80;;;3.40;;
26042;SDS011;13818;52.156;5.382;2022-08-14T14:51:08;5.28;;;3.35;;
26042;SDS011;13818;52.156;5.382;2022-08-14T14:53:35;5.63;;;3.92;;
26042;SDS011;13818;52.156;5.382;2022-08-14T14:56:04;5.03;;;3.45;;
26042;SDS011;13818;52.156;5.382;2022-08-14T14:58:33;6.50;;;3.90;;
26042;SDS011;13818;52.156;5.382;2022-08-14T15:01:02;6.10;;;3.88;;
26042;SDS011;13818;52.156;5.382;2022-08-14T15:03:30;5.15;;;3.85;;
26042;SDS011;13818;52.156;5.382;2022-08-14T15:05:58;6.00;;;3.63;;
26042;SDS011;13818;52.156;5.382;2022-08-14T15:08:24;8.43;;;3.88;;
26042;SDS011;13818;52.156;5.382;2022-08-14T15:10:53;5.15;;;3.70;;
26042;SDS011;13818;52.156;5.382;2022-08-14T15:13:19;6.72;;;3.50;;
26042;SDS011;13818;52.156;5.382;2022-08-14T15:15:46;6.35;;;3.85;;
26042;SDS011;13818;52.156;5.382;2022-08-14T15:18:14;4.60;;;3.65;;